Time;durP1;ratioP1;P1;durP2;ratioP2;P2;SDS_P1;SDS_P2;PMS_P1;PMS_P2;Temp;Humidity;BMP_temperature;BMP_pressure;BME280_temperature;BME280_humidity;BME280_pressure;Samples;Min_cycle;Max_cycle;Signal;HPM_P1;HPM_P2
2023/08/04 00:00:22;;;;;;;10.85;2.87;;;;;;;19.08;99.01;97557.44;4425283;32;20086;-79
2023/08/04 00:02:49;;;;;;;6.22;2.30;;;;;;;19.88;93.20;97548.75;4425414;32;20104;-79
2023/08/04 00:05:16;;;;;;;6.12;2.40;;;;;;;20.21;90.70;97551.00;4425124;32;20066;-78
2023/08/04 00:07:43;;;;;;;8.38;2.47;;;;;;;20.56;88.37;97539.16;4425798;32;20436;-78
2023/08/04 00:10:11;;;;;;;4.95;2.15;;;;;;;20.26;89.93;97532.25;4425509;32;20108;-78
2023/08/04 00:12:38;;;;;;;7.53;2.50;;;;;;;19.49;93.69;97529.50;4411991;32;20070;-79
2023/08/04 00:15:08;;;;;;;11.45;2.70;;;;;;;20.37;89.58;97532.09;4412427;32;20114;-79
2023/08/04 00:17:37;;;;;;;7.45;2.42;;;;;;;20.65;88.09;97524.37;4426339;32;20145;-79
2023/08/04 00:20:08;;;;;;;7.35;2.50;;;;;;;21.05;85.02;97524.97;4426591;32;20108;-79
2023/08/04 00:22:35;;;;;;;8.70;2.50;;;;;;;22.03;78.37;97523.47;4413904;32;20104;-79
2023/08/04 00:25:02;;;;;;;8.48;2.35;;;;;;;22.91;74.26;97536.72;4427282;32;20102;-80
2023/08/04 00:27:29;;;;;;;5.05;2.20;;;;;;;22.72;73.89;97533.25;4426183;32;20158;-79
2023/08/04 00:29:56;;;;;;;6.87;2.53;;;;;;;22.09;77.88;97528.16;4425623;32;20086;-79
2023/08/04 00:32:23;;;;;;;9.45;3.15;;;;;;;21.74;80.83;97514.97;4412077;32;20589;-79
2023/08/04 00:34:50;;;;;;;7.28;2.58;;;;;;;22.53;77.22;97533.44;4425792;32;20097;-79
2023/08/04 00:37:17;;;;;;;7.97;2.35;;;;;;;21.32;84.12;97531.22;4426212;32;20110;-79
2023/08/04 00:39:44;;;;;;;6.65;2.50;;;;;;;21.42;83.68;97512.81;4426633;32;20081;-80
2023/08/04 00:42:11;;;;;;;6.03;2.33;;;;;;;21.74;81.51;97514.97;4427144;32;20082;-79
2023/08/04 00:44:38;;;;;;;7.12;2.60;;;;;;;21.31;85.22;97529.56;4428882;32;20090;-79
2023/08/04 00:47:05;;;;;;;9.60;2.67;;;;;;;21.36;84.17;97561.44;4426926;32;20097;-79
2023/08/04 00:49:33;;;;;;;6.55;2.53;;;;;;;21.14;86.52;97573.09;4429052;32;20098;-79
2023/08/04 00:52:00;;;;;;;5.75;2.25;;;;;;;19.96;91.91;97545.47;4414517;32;20104;-79
2023/08/04 00:54:27;;;;;;;6.87;2.37;;;;;;;19.54;95.88;97533.34;4414113;32;20120;-79
2023/08/04 00:56:55;;;;;;;10.25;2.97;;;;;;;19.05;99.10;97532.37;4428311;32;20472;-79
2023/08/04 00:59:22;;;;;;;8.10;2.53;;;;;;;20.21;91.34;97526.59;4414740;32;20503;-79
2023/08/04 01:01:49;;;;;;;7.28;2.50;;;;;;;19.74;95.08;97526.41;4414636;32;20094;-78
2023/08/04 01:04:18;;;;;;;6.68;2.17;;;;;;;20.83;89.92;97527.91;4414652;32;20114;-79
2023/08/04 01:06:52;;;;;;;6.30;2.45;;;;;;;20.77;89.29;97524.06;4414665;32;20135;-79
2023/08/04 01:09:42;;;;;;;6.25;2.50;;;;;;;21.06;87.63;97537.09;4429211;32;20090;-79
2023/08/04 01:12:31;;;;;;;5.93;2.12;;;;;;;22.53;78.84;97546.59;4429237;32;20473;-79
2023/08/04 01:14:59;;;;;;;5.55;2.20;;;;;;;22.44;77.75;97550.97;4415276;32;20161;-79
2023/08/04 01:17:30;;;;;;;6.05;2.45;;;;;;;21.98;80.23;97548.53;4416330;32;20127;-79
2023/08/04 01:19:58;;;;;;;8.40;2.60;;;;;;;21.79;82.57;97538.97;4429243;32;20070;-79
2023/08/04 01:22:25;;;;;;;7.43;2.80;;;;;;;20.70;88.39;97506.41;4416383;32;20125;-79
2023/08/04 01:24:53;;;;;;;6.03;2.15;;;;;;;21.67;84.00;97499.81;4428760;32;20437;-79
2023/08/04 01:27:32;;;;;;;7.00;2.55;;;;;;;21.43;83.57;97499.53;4427937;32;20144;-79
2023/08/04 01:30:02;;;;;;;8.15;2.50;;;;;;;20.26;91.88;97499.97;4412926;32;20172;-79
2023/08/04 01:32:29;;;;;;;7.68;2.20;;;;;;;21.94;83.14;97521.75;4414591;32;20078;-79
2023/08/04 01:34:56;;;;;;;9.02;2.65;;;;;;;22.93;75.11;97542.62;4427917;32;20102;-79
2023/08/04 01:37:23;;;;;;;5.60;2.50;;;;;;;22.30;78.95;97533.09;4427470;32;20191;-79
2023/08/04 01:39:50;;;;;;;6.78;2.50;;;;;;;22.59;77.68;97548.63;4428248;32;20106;-79
2023/08/04 01:42:17;;;;;;;7.28;2.40;;;;;;;23.20;74.85;97541.66;4428469;32;20168;-80
2023/08/04 01:44:44;;;;;;;6.75;2.45;;;;;;;22.90;75.49;97543.78;4415308;32;20125;-79
2023/08/04 01:47:11;;;;;;;7.18;2.53;;;;;;;21.96;81.39;97525.03;4429594;32;20463;-79
2023/08/04 01:49:38;;;;;;;7.68;2.47;;;;;;;21.16;86.97;97510.84;4429178;32;20098;-79
2023/08/04 01:52:05;;;;;;;5.90;2.28;;;;;;;20.03;93.00;97502.06;4428435;32;20138;-79
2023/08/04 01:54:32;;;;;;;6.47;2.33;;;;;;;20.03;92.77;97497.66;4427965;32;20474;-79
2023/08/04 01:56:59;;;;;;;6.97;2.50;;;;;;;19.85;92.80;97491.44;4427530;32;20112;-79
2023/08/04 01:59:26;;;;;;;5.25;2.15;;;;;;;19.57;96.44;97487.84;4428709;32;20089;-79
2023/08/04 02:01:53;;;;;;;7.32;2.22;;;;;;;19.80;95.31;97480.56;4427311;32;20169;-79
2023/08/04 02:04:20;;;;;;;6.68;2.35;;;;;;;20.23;92.00;97470.50;4428232;32;20090;-79
2023/08/04 02:06:46;;;;;;;6.62;2.40;;;;;;;19.08;99.28;97469.34;4427632;32;20153;-79
2023/08/04 02:09:14;;;;;;;9.70;2.30;;;;;;;19.22;99.97;97452.47;4427121;32;20089;-79
2023/08/04 02:11:43;;;;;;;6.30;2.33;;;;;;;19.16;100.00;97432.09;4426914;32;20378;-79
2023/08/04 02:14:10;;;;;;;5.93;2.10;;;;;;;18.33;100.00;97433.06;4414098;32;20093;-79
2023/08/04 02:16:38;;;;;;;6.57;2.28;;;;;;;18.59;100.00;97441.31;4426771;32;20131;-79
2023/08/04 02:19:08;;;;;;;4.60;1.92;;;;;;;18.59;100.00;97430.88;4426265;32;20160;-79
2023/08/04 02:21:36;;;;;;;6.15;2.30;;;;;;;17.95;100.00;97420.59;4413769;32;20101;-79
2023/08/04 02:24:03;;;;;;;6.80;2.60;;;;;;;18.36;100.00;97434.59;4427418;32;20773;-79
2023/08/04 02:26:30;;;;;;;8.93;2.95;;;;;;;19.05;100.00;97438.25;4427110;32;20747;-79
2023/08/04 02:28:57;;;;;;;6.28;2.20;;;;;;;20.02;97.80;97432.31;4427984;32;20138;-79
2023/08/04 02:31:27;;;;;;;7.45;2.70;;;;;;;19.50;100.00;97434.34;4427660;32;20115;-80
2023/08/04 02:33:54;;;;;;;7.35;2.58;;;;;;;19.97;99.33;97445.00;4413901;32;20109;-79
2023/08/04 02:36:23;;;;;;;7.03;2.42;;;;;;;20.41;94.53;97456.66;4426958;32;20132;-79
2023/08/04 02:38:50;;;;;;;5.82;2.35;;;;;;;19.79;98.19;97469.25;4413019;32;20090;-79
2023/08/04 02:41:17;;;;;;;9.55;2.78;;;;;;;20.83;90.79;97530.53;4427636;32;20774;-79
2023/08/04 02:43:44;;;;;;;11.38;2.60;;;;;;;20.17;94.17;97572.34;4426951;32;20157;-79
2023/08/04 02:46:11;;;;;;;6.85;2.92;;;;;;;20.62;91.54;97566.56;4427957;32;20161;-79
2023/08/04 02:48:38;;;;;;;7.43;2.70;;;;;;;20.03;96.38;97573.59;4429802;32;20081;-79
2023/08/04 02:51:10;;;;;;;7.40;2.60;;;;;;;21.12;88.97;97650.28;4412385;32;20421;-79
2023/08/04 02:53:39;;;;;;;8.10;2.60;;;;;;;20.35;95.73;97649.31;4425406;32;20395;-78
2023/08/04 02:56:13;;;;;;;8.18;2.47;;;;;;;20.29;97.08;97647.22;4412234;32;20133;-78
2023/08/04 02:58:43;;;;;;;5.70;2.30;;;;;;;20.41;95.86;97635.66;4425885;32;20082;-79
2023/08/04 03:01:11;;;;;;;7.53;2.62;;;;;;;20.35;96.86;97606.56;4413382;32;20086;-79
2023/08/04 03:03:38;;;;;;;4.50;2.00;;;;;;;20.72;96.71;97649.47;4427238;32;20148;-79
2023/08/04 03:06:05;;;;;;;5.87;2.30;;;;;;;20.35;96.64;97649.31;4411486;32;20101;-79
2023/08/04 03:08:32;;;;;;;4.25;1.80;;;;;;;19.16;100.00;97570.69;4425677;32;20090;-79
2023/08/04 03:11:00;;;;;;;7.53;2.58;;;;;;;18.21;100.00;97539.37;4426461;32;20099;-79
2023/08/04 03:13:27;;;;;;;6.10;2.37;;;;;;;19.00;100.00;97601.69;4413008;32;20098;-80
2023/08/04 03:15:59;;;;;;;8.20;2.00;;;;;;;18.81;100.00;97591.09;4425905;32;20588;-78
2023/08/04 03:18:26;;;;;;;5.90;2.30;;;;;;;18.11;100.00;97585.47;4425477;32;20152;-78
2023/08/04 03:20:54;;;;;;;7.07;2.20;;;;;;;18.27;100.00;97585.03;4425431;32;20455;-79
2023/08/04 03:23:21;;;;;;;6.72;2.08;;;;;;;18.72;100.00;97590.94;4426362;32;20153;-79
2023/08/04 03:25:49;;;;;;;3.10;1.62;;;;;;;18.20;100.00;97581.28;4426635;32;20558;-79
2023/08/04 03:28:16;;;;;;;5.85;1.92;;;;;;;18.81;100.00;97591.09;4426460;32;20073;-79
2023/08/04 03:30:43;;;;;;;4.20;1.12;;;;;;;18.48;100.00;97582.47;4425950;32;20241;-79
2023/08/04 03:33:10;;;;;;;2.45;1.40;;;;;;;18.25;100.00;97533.91;4425873;32;20144;-79
2023/08/04 03:35:37;;;;;;;3.92;1.42;;;;;;;17.85;100.00;97521.47;4425139;32;20157;-79
2023/08/04 03:38:04;;;;;;;3.78;1.40;;;;;;;17.44;100.00;97542.97;4411560;32;20085;-78
2023/08/04 03:40:31;;;;;;;3.35;1.30;;;;;;;17.19;100.00;97531.03;4411096;32;20441;-78
2023/08/04 03:42:58;;;;;;;4.20;1.50;;;;;;;17.14;100.00;97539.22;4425379;32;20106;-79
2023/08/04 03:45:26;;;;;;;5.10;1.90;;;;;;;17.22;100.00;97536.81;4425995;32;20123;-79
2023/08/04 03:47:53;;;;;;;5.32;2.10;;;;;;;17.50;100.00;97527.69;4426000;32;20082;-79
2023/08/04 03:50:23;;;;;;;4.68;1.73;;;;;;;18.00;100.00;97522.03;4425577;32;20081;-79
2023/08/04 03:52:50;;;;;;;4.65;1.70;;;;;;;17.72;100.00;97515.56;4412355;32;20524;-79
2023/08/04 03:55:17;;;;;;;4.93;2.30;;;;;;;17.90;100.00;97524.53;4425336;32;20109;-78
2023/08/04 03:57:44;;;;;;;3.87;1.42;;;;;;;18.30;100.00;97521.31;4411517;32;20104;-79
2023/08/04 04:00:11;;;;;;;7.50;1.83;;;;;;;17.74;100.00;97519.72;4426542;32;20157;-79
2023/08/04 04:02:39;;;;;;;5.75;1.65;;;;;;;18.15;100.00;97511.16;4426460;32;20153;-79
2023/08/04 04:05:06;;;;;;;4.32;1.50;;;;;;;18.10;100.00;97517.72;4411986;32;20113;-79
2023/08/04 04:07:33;;;;;;;6.03;1.77;;;;;;;18.38;100.00;97516.25;4426307;32;20088;-79
2023/08/04 04:10:00;;;;;;;4.40;1.45;;;;;;;18.26;100.00;97507.66;4425735;32;20169;-79
2023/08/04 04:12:27;;;;;;;3.83;1.62;;;;;;;17.86;100.00;97512.69;4425098;32;20094;-78
2023/08/04 04:14:53;;;;;;;3.62;1.23;;;;;;;17.96;100.00;97508.37;4411916;32;20113;-79
2023/08/04 04:17:20;;;;;;;4.47;1.73;;;;;;;17.71;100.00;97504.31;4425509;32;20068;-79
2023/08/04 04:19:47;;;;;;;4.18;1.40;;;;;;;17.82;100.00;97512.09;4427723;32;20103;-79
2023/08/04 04:22:15;;;;;;;5.47;1.73;;;;;;;18.04;100.00;97512.97;4427518;32;20143;-79
2023/08/04 04:24:41;;;;;;;5.50;1.98;;;;;;;18.32;100.00;97514.16;4427572;32;20688;-79
2023/08/04 04:27:08;;;;;;;4.55;1.73;;;;;;;17.87;100.00;97522.19;4427499;32;20141;-78
2023/08/04 04:29:35;;;;;;;5.78;2.00;;;;;;;17.97;100.00;97532.69;4426948;32;20146;-79
2023/08/04 04:32:02;;;;;;;20.25;2.33;;;;;;;18.49;100.00;97527.47;4427343;32;20108;-79
2023/08/04 04:34:29;;;;;;;4.68;1.98;;;;;;;18.32;100.00;97528.06;4426605;32;20101;-79
2023/08/04 04:36:58;;;;;;;5.28;1.80;;;;;;;18.30;100.00;97529.16;4427286;32;20113;-81
2023/08/04 04:39:25;;;;;;;6.53;1.80;;;;;;;18.36;100.00;97546.91;4426478;32;20074;-80
2023/08/04 04:41:52;;;;;;;6.75;1.90;;;;;;;18.69;100.00;97551.16;4426620;32;20102;-81
2023/08/04 04:44:19;;;;;;;5.65;1.83;;;;;;;18.18;100.00;97550.09;4426649;32;20127;-80
2023/08/04 04:46:46;;;;;;;6.12;2.08;;;;;;;17.87;100.00;97551.72;4426105;32;20444;-80
2023/08/04 04:49:14;;;;;;;4.80;1.85;;;;;;;18.46;100.00;97563.47;4426612;32;20089;-80
2023/08/04 04:51:42;;;;;;;5.25;2.08;;;;;;;18.81;100.00;97572.81;4426106;32;20146;-81
2023/08/04 04:54:09;;;;;;;10.43;2.95;;;;;;;19.95;99.36;97586.53;4426429;32;20105;-81
2023/08/04 04:56:37;;;;;;;6.95;2.28;;;;;;;20.15;96.18;97574.28;4426291;32;20500;-80
2023/08/04 04:59:04;;;;;;;6.85;2.08;;;;;;;19.14;100.00;97558.69;4412462;32;20724;-81
2023/08/04 05:01:31;;;;;;;4.72;1.80;;;;;;;18.73;100.00;97563.84;4426482;32;20112;-80
2023/08/04 05:03:58;;;;;;;4.00;1.83;;;;;;;18.80;100.00;97561.53;4426573;32;20161;-81
2023/08/04 05:06:25;;;;;;;7.03;1.65;;;;;;;17.75;100.00;97544.84;4426365;32;20713;-80
2023/08/04 05:08:56;;;;;;;4.12;1.58;;;;;;;17.81;100.00;97536.53;4426473;32;20069;-81
2023/08/04 05:11:22;;;;;;;6.12;1.67;;;;;;;18.03;100.00;97535.66;4426533;32;20090;-80
2023/08/04 05:13:49;;;;;;;3.60;1.52;;;;;;;18.47;100.00;97541.63;4426362;32;20153;-81
2023/08/04 05:16:16;;;;;;;8.10;1.42;;;;;;;18.35;100.00;97530.41;4426693;32;20062;-80
2023/08/04 05:18:43;;;;;;;4.45;1.60;;;;;;;18.27;100.00;97529.38;4427123;32;20100;-81
2023/08/04 05:21:10;;;;;;;5.28;1.70;;;;;;;18.30;100.00;97523.91;4426786;32;20112;-80
2023/08/04 05:23:37;;;;;;;3.00;1.42;;;;;;;19.01;99.46;97535.38;4426673;32;20180;-80
2023/08/04 05:26:04;;;;;;;4.22;1.40;;;;;;;18.86;99.48;97531.44;4426758;32;20089;-80
2023/08/04 05:28:32;;;;;;;6.35;1.65;;;;;;;18.38;100.00;97531.94;4425759;32;20161;-80
2023/08/04 05:31:04;;;;;;;5.70;1.73;;;;;;;18.19;100.00;97530.03;4426471;32;20694;-80
2023/08/04 05:33:32;;;;;;;6.45;2.08;;;;;;;18.35;100.00;97540.03;4426726;32;20117;-80
2023/08/04 05:35:59;;;;;;;3.80;1.60;;;;;;;18.42;100.00;97554.25;4412469;32;20148;-80
2023/08/04 05:38:26;;;;;;;3.65;1.98;;;;;;;18.44;100.00;97550.53;4427035;32;20153;-80
2023/08/04 05:40:54;;;;;;;4.93;1.83;;;;;;;18.64;100.00;97550.69;4426140;32;20171;-80
2023/08/04 05:43:28;;;;;;;3.92;1.65;;;;;;;19.22;99.89;97549.22;4424087;32;20109;-81
2023/08/04 05:46:03;;;;;;;4.72;1.70;;;;;;;19.32;98.25;97563.16;4423616;32;20102;-80
2023/08/04 05:48:34;;;;;;;7.05;2.00;;;;;;;19.63;94.70;97563.16;4424755;32;20471;-80
2023/08/04 05:51:01;;;;;;;4.95;1.85;;;;;;;19.45;93.24;97562.09;4425075;32;20566;-80
2023/08/04 05:53:28;;;;;;;4.47;1.65;;;;;;;19.27;97.02;97581.06;4424632;32;20097;-80
2023/08/04 05:55:54;;;;;;;3.42;1.55;;;;;;;20.06;92.01;97589.03;4424978;32;20097;-81
2023/08/04 05:58:21;;;;;;;4.32;1.90;;;;;;;19.47;95.19;97591.59;4426019;32;20083;-81
2023/08/04 06:00:48;;;;;;;6.03;1.95;;;;;;;20.35;92.28;97604.78;4427483;32;20098;-81
2023/08/04 06:03:15;;;;;;;4.15;1.62;;;;;;;20.41;89.41;97606.81;4412297;32;20445;-82
2023/08/04 06:05:43;;;;;;;6.85;2.10;;;;;;;20.52;88.73;97608.50;4426154;32;20111;-82
2023/08/04 06:08:10;;;;;;;4.40;1.73;;;;;;;20.19;89.67;97597.44;4424923;32;20086;-81
2023/08/04 06:10:37;;;;;;;3.72;1.67;;;;;;;20.17;91.51;97594.13;4425014;32;20155;-82
2023/08/04 06:13:05;;;;;;;5.05;1.80;;;;;;;20.22;90.71;97594.56;4427065;32;20097;-83
2023/08/04 06:15:33;;;;;;;8.40;2.00;;;;;;;20.94;88.30;97606.41;4426528;32;20101;-82
2023/08/04 06:18:00;;;;;;;5.50;1.90;;;;;;;22.97;76.31;97620.28;4430175;32;20046;-82
2023/08/04 06:20:27;;;;;;;5.40;2.00;;;;;;;23.69;70.66;97634.88;4430219;32;20760;-83
2023/08/04 06:22:54;;;;;;;4.35;1.67;;;;;;;24.63;66.37;97634.66;4414210;32;20124;-82
2023/08/04 06:25:21;;;;;;;3.45;1.50;;;;;;;23.29;73.15;97636.28;4429770;32;20111;-80
2023/08/04 06:27:49;;;;;;;5.45;1.75;;;;;;;23.09;73.36;97619.06;4428373;32;20360;-82
2023/08/04 06:30:17;;;;;;;3.80;1.50;;;;;;;22.35;77.74;97606.25;4427608;32;20106;-81
2023/08/04 06:32:46;;;;;;;5.80;2.00;;;;;;;22.36;76.56;97613.16;4429902;32;20148;-81
2023/08/04 06:35:14;;;;;;;4.50;1.60;;;;;;;21.14;80.87;97611.62;4428717;32;20411;-81
2023/08/04 06:37:41;;;;;;;5.47;1.60;;;;;;;21.57;81.00;97614.53;4407625;32;289780;-81
2023/08/04 06:40:09;;;;;;;5.18;1.37;;;;;;;21.46;79.01;97606.84;4428380;32;20154;-80
2023/08/04 06:42:36;;;;;;;4.43;1.42;;;;;;;21.49;76.91;97609.19;4430632;32;20678;-80
2023/08/04 06:45:03;;;;;;;4.97;1.73;;;;;;;21.70;76.19;97608.16;4430874;32;20089;-81
2023/08/04 06:47:31;;;;;;;4.40;1.35;;;;;;;21.87;76.29;97602.91;4432212;32;20082;-81
2023/08/04 06:49:58;;;;;;;3.78;1.50;;;;;;;20.98;77.86;97586.81;4431160;32;20101;-80
2023/08/04 06:52:25;;;;;;;6.45;2.12;;;;;;;20.42;83.57;97598.06;4431258;32;20160;-81
2023/08/04 06:54:52;;;;;;;3.28;1.60;;;;;;;21.43;80.03;97601.88;4432231;32;20144;-81
2023/08/04 06:57:18;;;;;;;3.40;1.65;;;;;;;21.95;77.31;97600.37;4424202;32;20077;-81
2023/08/04 06:59:45;;;;;;;5.68;1.52;;;;;;;22.14;74.65;97610.00;4424326;32;20105;-81
2023/08/04 07:02:12;;;;;;;4.78;1.60;;;;;;;21.16;78.13;97612.28;4425657;32;20165;-82
2023/08/04 07:04:39;;;;;;;6.37;1.83;;;;;;;22.16;75.78;97629.06;4424971;32;20566;-82
2023/08/04 07:07:06;;;;;;;3.92;1.45;;;;;;;24.10;65.40;97664.00;4424032;32;20156;-81
2023/08/04 07:09:33;;;;;;;3.33;1.40;;;;;;;24.78;61.65;97677.88;4424499;32;20116;-80
2023/08/04 07:12:00;;;;;;;4.07;1.40;;;;;;;24.96;59.76;97690.91;4424575;32;20116;-81
2023/08/04 07:14:27;;;;;;;4.60;1.20;;;;;;;24.10;63.70;97691.19;4410832;32;20101;-82
2023/08/04 07:16:54;;;;;;;2.15;1.20;;;;;;;22.88;64.83;97665.91;4423811;32;20121;-82
2023/08/04 07:19:21;;;;;;;4.53;1.52;;;;;;;22.29;70.51;97654.13;4424909;32;20171;-82
2023/08/04 07:21:48;;;;;;;4.80;1.40;;;;;;;22.26;72.15;97643.94;4424761;32;20423;-82
2023/08/04 07:24:15;;;;;;;2.45;1.40;;;;;;;22.80;69.99;97658.75;4425190;32;20104;-82
2023/08/04 07:26:42;;;;;;;2.83;1.23;;;;;;;23.82;65.94;97658.12;4424192;32;20081;-82
2023/08/04 07:29:09;;;;;;;4.75;1.30;;;;;;;23.93;65.74;97661.34;4425901;32;20097;-82
2023/08/04 07:31:35;;;;;;;3.30;1.20;;;;;;;24.21;64.88;97646.09;4427382;32;20058;-83
2023/08/04 07:34:03;;;;;;;4.05;1.40;;;;;;;24.89;62.49;97658.25;4428309;32;20771;-82
2023/08/04 07:36:29;;;;;;;3.12;1.37;;;;;;;24.98;60.60;97651.97;4427898;32;20168;-82
2023/08/04 07:38:56;;;;;;;9.68;1.60;;;;;;;25.59;57.40;97642.66;4426649;32;20492;-82
2023/08/04 07:41:27;;;;;;;3.50;1.30;;;;;;;25.17;59.62;97650.84;4427531;32;20105;-83
2023/08/04 07:43:54;;;;;;;3.83;1.40;;;;;;;24.02;62.22;97646.34;4426975;32;20101;-83
2023/08/04 07:46:25;;;;;;;3.92;1.25;;;;;;;23.57;63.22;97644.00;4424328;32;20161;-82
2023/08/04 07:48:53;;;;;;;4.30;1.35;;;;;;;23.35;63.45;97629.56;4422672;32;20116;-82
2023/08/04 07:51:22;;;;;;;6.25;1.65;;;;;;;23.20;64.89;97626.69;4423777;32;20094;-82
2023/08/04 07:53:49;;;;;;;5.07;1.30;;;;;;;23.26;64.80;97633.13;4428129;32;20089;-82
2023/08/04 07:56:17;;;;;;;4.00;1.33;;;;;;;22.54;67.90;97629.72;4424322;32;20168;-82
2023/08/04 07:58:44;;;;;;;3.40;1.73;;;;;;;22.34;69.06;97638.78;4424655;32;20094;-82
2023/08/04 08:01:11;;;;;;;2.40;1.10;;;;;;;23.19;67.42;97647.91;4425599;32;20084;-81
2023/08/04 08:03:40;;;;;;;3.75;1.50;;;;;;;22.52;68.86;97634.31;4431968;32;20911;-81
2023/08/04 08:06:07;;;;;;;5.72;1.37;;;;;;;22.60;69.90;97641.47;4431019;32;20058;-81
2023/08/04 08:08:34;;;;;;;2.60;1.30;;;;;;;22.50;68.88;97638.91;4430822;32;20117;-81
2023/08/04 08:11:11;;;;;;;4.85;1.60;;;;;;;23.25;66.39;97640.19;4431214;32;20080;-82
2023/08/04 08:13:38;;;;;;;3.95;1.37;;;;;;;23.90;64.11;97640.56;4433927;32;20412;-82
2023/08/04 08:16:14;;;;;;;2.97;1.30;;;;;;;23.18;65.59;97647.06;4426726;32;20111;-82
2023/08/04 08:18:45;;;;;;;1.92;0.90;;;;;;;23.00;65.93;97641.00;4423152;32;20388;-81
2023/08/04 08:21:13;;;;;;;2.67;1.20;;;;;;;22.38;67.95;97637.47;4424961;32;20543;-81
2023/08/04 08:23:39;;;;;;;4.00;1.23;;;;;;;22.12;71.24;97646.09;4411361;32;20168;-81
2023/08/04 08:26:06;;;;;;;7.18;1.52;;;;;;;21.75;70.23;97635.59;4423574;32;20549;-82
2023/08/04 08:28:33;;;;;;;5.55;1.70;;;;;;;22.04;70.29;97624.94;4425229;32;20087;-81
2023/08/04 08:31:00;;;;;;;3.40;1.42;;;;;;;22.71;70.76;97623.66;4427396;32;20137;-81
2023/08/04 08:33:27;;;;;;;3.55;1.20;;;;;;;23.87;63.37;97614.53;4425044;32;20097;-81
2023/08/04 08:35:57;;;;;;;5.32;1.20;;;;;;;24.49;60.67;97624.75;4425517;32;20094;-82
2023/08/04 08:38:24;;;;;;;4.03;1.25;;;;;;;25.27;57.27;97617.16;4420071;32;20113;-82
2023/08/04 08:40:51;;;;;;;5.20;1.35;;;;;;;25.95;58.92;97634.31;4424817;32;20145;-81
2023/08/04 08:43:18;;;;;;;2.60;1.00;;;;;;;;;;4425642;32;20085;-81
2023/08/04 08:45:47;;;;;;;4.28;1.60;;;;;;;25.18;60.94;97628.72;4422267;32;20090;-83
2023/08/04 08:48:24;;;;;;;5.82;1.20;;;;;;;26.25;56.23;97635.28;4419321;32;20152;-81
2023/08/04 08:51:09;;;;;;;3.45;1.40;;;;;;;26.43;57.27;97627.94;4410183;32;20102;-80
2023/08/04 08:53:38;;;;;;;4.18;1.40;;;;;;;26.65;54.45;97628.94;4422670;32;20570;-81
2023/08/04 08:56:08;;;;;;;4.87;1.52;;;;;;;25.36;57.46;97628.53;4423227;32;20514;-79
2023/08/04 08:58:35;;;;;;;6.00;1.52;;;;;;;24.93;59.48;97627.09;4406661;32;20136;-80
2023/08/04 09:01:03;;;;;;;4.12;1.30;;;;;;;26.29;57.17;97625.22;4405992;32;20159;-80
2023/08/04 09:03:30;;;;;;;3.83;1.35;;;;;;;25.66;58.86;97619.03;4422971;32;20085;-81
2023/08/04 09:05:57;;;;;;;5.10;1.30;;;;;;;25.35;59.56;97618.97;4395645;32;20112;-81
2023/08/04 09:08:24;;;;;;;2.45;1.25;;;;;;;24.85;60.47;97612.06;4421450;32;20109;-80
2023/08/04 09:10:51;;;;;;;2.20;1.10;;;;;;;24.35;63.29;97613.06;4421920;32;20117;-80
2023/08/04 09:13:18;;;;;;;5.47;1.50;;;;;;;24.06;65.16;97604.72;4422627;32;20117;-80
2023/08/04 09:15:58;;;;;;;4.28;1.73;;;;;;;25.14;63.01;97602.84;4421131;32;20169;-79
2023/08/04 09:18:26;;;;;;;2.62;1.30;;;;;;;26.49;56.73;97608.75;4422623;32;20169;-79
2023/08/04 09:21:01;;;;;;;3.37;1.30;;;;;;;26.53;57.59;97607.37;4422083;32;20155;-81
2023/08/04 09:23:29;;;;;;;3.70;1.50;;;;;;;27.47;53.91;97609.69;4422726;32;20089;-81
2023/08/04 09:25:56;;;;;;;4.97;2.08;;;;;;;26.98;55.98;97605.69;4408033;32;20136;-81
2023/08/04 09:28:27;;;;;;;3.00;1.27;;;;;;;27.14;55.78;97612.69;4422435;32;20097;-80
2023/08/04 09:31:05;;;;;;;2.85;1.30;;;;;;;27.87;52.99;97609.25;4423273;32;20094;-80
2023/08/04 09:33:33;;;;;;;5.15;1.45;;;;;;;26.67;55.83;97595.19;4421331;32;20115;-80
2023/08/04 09:36:05;;;;;;;3.30;1.58;;;;;;;26.86;54.73;97599.19;4423111;32;20119;-80
2023/08/04 09:38:33;;;;;;;4.50;1.20;;;;;;;27.06;54.27;97608.28;4423986;32;20094;-80
2023/08/04 09:41:01;;;;;;;3.10;1.50;;;;;;;28.06;51.63;97607.00;4423236;32;20132;-80
2023/08/04 09:43:28;;;;;;;3.97;1.58;;;;;;;28.57;49.81;97604.31;4409962;32;20085;-79
2023/08/04 09:46:03;;;;;;;4.40;1.70;;;;;;;28.05;53.09;97611.47;4424968;32;20161;-81
2023/08/04 09:48:30;;;;;;;4.22;1.52;;;;;;;27.72;53.56;97610.25;4424465;32;20098;-80
2023/08/04 09:51:14;;;;;;;2.92;1.30;;;;;;;27.75;52.87;97610.69;4423545;32;20094;-80
2023/08/04 09:53:49;;;;;;;4.32;1.60;;;;;;;28.01;53.86;97618.19;4424658;32;20082;-79
2023/08/04 09:56:18;;;;;;;4.03;1.80;;;;;;;27.19;54.21;97605.00;4410695;32;20468;-79
2023/08/04 09:58:47;;;;;;;4.03;1.52;;;;;;;27.64;54.78;97595.22;4423994;32;20779;-81
2023/08/04 10:01:14;;;;;;;9.10;1.73;;;;;;;28.09;54.34;97614.59;4409114;32;20108;-80
2023/08/04 10:03:43;;;;;;;3.05;1.40;;;;;;;28.48;51.86;97609.72;4424415;32;20094;-81
2023/08/04 10:06:10;;;;;;;3.78;1.30;;;;;;;28.34;51.41;97618.56;4424180;32;20121;-80
2023/08/04 10:08:40;;;;;;;2.62;1.40;;;;;;;28.62;52.19;97615.19;4423971;32;20767;-81
2023/08/04 10:11:07;;;;;;;3.95;1.50;;;;;;;29.09;51.62;97607.44;4410390;32;20106;-80
2023/08/04 10:13:37;;;;;;;2.78;1.25;;;;;;;28.91;49.14;97612.38;4423954;32;20123;-81
2023/08/04 10:16:06;;;;;;;3.33;1.50;;;;;;;29.13;50.05;97605.19;4424528;32;20101;-80
2023/08/04 10:19:03;;;;;;;2.12;1.23;;;;;;;28.59;50.89;97605.75;4411635;32;20110;-79
2023/08/04 10:21:42;;;;;;;3.08;1.33;;;;;;;28.91;52.38;97612.38;4423644;32;20145;-80
2023/08/04 10:24:11;;;;;;;1.83;1.08;;;;;;;28.41;52.45;97606.22;4411120;32;20109;-81
2023/08/04 10:26:48;;;;;;;3.45;1.35;;;;;;;28.92;51.21;97618.53;4424596;32;20082;-81
2023/08/04 10:29:16;;;;;;;2.58;1.30;;;;;;;28.53;51.81;97606.53;4423143;32;20196;-81
2023/08/04 10:31:52;;;;;;;2.65;1.17;;;;;;;28.63;51.38;97612.34;4424197;32;20097;-80
2023/08/04 10:34:28;;;;;;;3.00;1.30;;;;;;;28.00;51.96;97615.72;4407588;32;20136;-81
2023/08/04 10:37:09;;;;;;;3.42;1.50;;;;;;;27.61;55.73;97622.13;4420765;32;20117;-81
2023/08/04 10:39:38;;;;;;;3.55;1.45;;;;;;;28.61;53.20;97624.16;4421455;32;20441;-80
2023/08/04 10:42:14;;;;;;;3.05;1.30;;;;;;;29.04;50.66;97620.47;4421981;32;20093;-81
2023/08/04 10:44:53;;;;;;;5.82;1.48;;;;;;;29.95;49.80;97615.09;4422292;32;20814;-82
2023/08/04 10:47:40;;;;;;;2.95;1.40;;;;;;;28.64;51.55;97618.47;4419849;32;20162;-81
2023/08/04 10:50:27;;;;;;;3.60;1.42;;;;;;;29.82;48.34;97626.50;4421508;32;20110;-81
2023/08/04 10:52:53;;;;;;;3.03;1.60;;;;;;;30.49;47.41;97636.38;4421643;32;20777;-83
2023/08/04 10:55:20;;;;;;;3.40;1.50;;;;;;;30.12;47.65;97631.56;4408499;32;20483;-80
2023/08/04 10:57:47;;;;;;;5.37;1.95;;;;;;;27.91;53.06;97638.84;4421271;32;20132;-79
2023/08/04 11:00:14;;;;;;;4.53;2.03;;;;;;;29.21;49.94;97631.63;4422264;32;20354;-80
2023/08/04 11:02:41;;;;;;;4.62;1.40;;;;;;;29.93;49.08;97628.59;4425687;32;20109;-81
2023/08/04 11:05:11;;;;;;;3.42;1.40;;;;;;;30.00;50.05;97631.28;4425874;32;20173;-80
2023/08/04 11:07:45;;;;;;;4.47;1.60;;;;;;;29.67;48.62;97634.62;4427635;32;20148;-79
2023/08/04 11:10:12;;;;;;;3.78;1.73;;;;;;;31.00;45.62;97632.38;4415983;32;20121;-80
2023/08/04 11:12:38;;;;;;;5.32;1.70;;;;;;;29.37;51.33;97635.84;4432461;32;20100;-82
2023/08/04 11:15:11;;;;;;;3.08;1.52;;;;;;;31.16;45.70;97631.09;4431967;32;20062;-80
2023/08/04 11:17:39;;;;;;;3.15;1.50;;;;;;;31.29;47.41;97625.81;4432760;32;20054;-82
2023/08/04 11:20:14;;;;;;;4.07;1.52;;;;;;;29.92;48.15;97620.81;4431563;32;20156;-81
2023/08/04 11:22:46;;;;;;;3.70;1.77;;;;;;;28.85;50.85;97615.78;4431580;32;20101;-81
2023/08/04 11:25:22;;;;;;;5.25;1.58;;;;;;;29.46;50.73;97616.06;4430945;32;20113;-79
2023/08/04 11:27:49;;;;;;;5.05;1.87;;;;;;;30.51;48.26;97612.19;4424237;32;20082;-81
2023/08/04 11:30:17;;;;;;;2.35;1.55;;;;;;;30.59;48.09;97617.34;4438533;32;20067;-82
2023/08/04 11:32:52;;;;;;;3.20;1.50;;;;;;;30.04;50.03;97621.06;4437922;32;20065;-82
2023/08/04 11:35:28;;;;;;;4.43;1.65;;;;;;;29.35;51.36;97621.94;4437986;32;20070;-81
2023/08/04 11:37:56;;;;;;;4.60;1.73;;;;;;;27.89;54.93;97625.78;4438598;32;20058;-81